Time;durP1;ratioP1;P1;durP2;ratioP2;P2;SDS_P1;SDS_P2;PMS_P1;PMS_P2;Temp;Humidity;BMP_temperature;BMP_pressure;BME280_temperature;BME280_humidity;BME280_pressure;Samples;Min_cycle;Max_cycle;Signal;HPM_P1;HPM_P2
2021/12/08 00:02:45;;;;;;;7.13;2.42;;;;;;;3.19;76.58;99004.25;4788581;30;20426;-68
2021/12/08 00:05:48;;;;;;;8.77;2.55;;;;;;;3.37;76.21;99000.81;4788533;30;20042;-68
2021/12/08 00:09:19;;;;;;;6.55;2.35;;;;;;;3.38;76.31;98994.75;4788512;30;20433;-68
2021/12/08 00:15:48;;;;;;;6.65;2.30;;;;;;;3.25;77.20;98985.88;4788208;30;20054;-68
2021/12/08 00:18:51;;;;;;;8.00;2.20;;;;;;;3.17;77.10;98986.25;4788420;30;20058;-68
2021/12/08 00:21:54;;;;;;;;;;;;;;;3.19;77.34;98993.91;4788822;29;20053;-69
2021/12/08 00:24:58;;;;;;;;;;;;;;;3.41;76.77;98989.41;4788757;29;20338;-68
2021/12/08 00:28:02;;;;;;;10.10;2.30;;;;;;;3.28;76.63;98984.91;4787932;29;19924;-68
2021/12/08 00:31:06;;;;;;;6.70;2.20;;;;;;;3.41;76.81;98998.94;4788157;29;20050;-68
2021/12/08 00:34:10;;;;;;;7.22;2.20;;;;;;;3.56;76.52;98987.03;4787942;30;20525;-68
2021/12/08 00:37:13;;;;;;;5.70;2.60;;;;;;;3.71;75.95;98991.47;4788124;29;20104;-68
2021/12/08 00:40:18;;;;;;;9.77;3.58;;;;;;;3.45;76.44;98996.13;4788218;29;20077;-68
2021/12/08 00:43:22;;;;;;;5.35;2.40;;;;;;;3.27;77.38;98986.66;4787713;29;20188;-68
2021/12/08 00:46:26;;;;;;;6.13;3.03;;;;;;;3.38;77.25;98991.31;4787705;29;20472;-68
2021/12/08 00:49:29;;;;;;;;;;;;;;;3.41;77.46;98988.59;4795427;29;20586;-69
2021/12/08 00:52:33;;;;;;;5.72;2.50;;;;;;;3.38;78.03;98996.47;4823414;29;20397;-68
2021/12/08 00:55:37;;;;;;;9.45;3.55;;;;;;;3.59;77.49;98992.88;4823888;29;20597;-69
2021/12/08 00:58:41;;;;;;;4.05;2.03;;;;;;;3.67;77.28;98989.91;4824347;29;20060;-68
2021/12/08 01:01:44;;;;;;;5.78;2.38;;;;;;;3.67;78.09;98985.63;4823763;29;20045;-68
2021/12/08 01:04:48;;;;;;;7.50;2.45;;;;;;;3.71;78.18;98981.13;4823924;29;20512;-68
2021/12/08 01:07:51;;;;;;;6.65;2.25;;;;;;;3.78;78.15;98982.50;4823801;29;20069;-68
2021/12/08 01:10:56;;;;;;;6.95;2.65;;;;;;;3.84;78.65;98981.34;4823541;29;20049;-68
2021/12/08 01:14:00;;;;;;;4.25;2.13;;;;;;;3.76;78.72;98989.47;4823587;29;20053;-68
2021/12/08 01:17:04;;;;;;;;;;;;;;;3.72;79.39;98993.13;4823939;29;20046;-68
2021/12/08 01:20:11;;;;;;;6.75;2.55;;;;;;;3.67;79.99;98985.63;4823180;29;19926;-68
2021/12/08 01:23:15;;;;;;;6.00;2.53;;;;;;;3.67;80.26;98992.50;4823594;29;20107;-68
2021/12/08 01:26:18;;;;;;;6.28;2.55;;;;;;;3.63;80.77;98984.06;4823147;29;20046;-68
2021/12/08 01:29:22;;;;;;;;;;;;;;;3.76;80.34;98991.22;4823799;29;20051;-68
2021/12/08 01:32:25;;;;;;;8.05;2.67;;;;;;;3.78;79.99;98982.50;4823549;29;20428;-68
2021/12/08 01:35:30;;;;;;;6.03;2.47;;;;;;;3.75;80.79;98987.81;4823184;29;20067;-68
2021/12/08 01:38:35;;;;;;;7.82;3.30;;;;;;;3.61;81.71;98991.06;4823244;29;20045;-68
2021/12/08 01:41:39;;;;;;;7.60;2.75;;;;;;;3.54;82.00;98983.66;4823146;29;20053;-68
2021/12/08 01:48:08;;;;;;;8.60;3.00;;;;;;;3.74;81.23;98975.81;4823211;29;20106;-69
2021/12/08 01:51:16;;;;;;;5.55;2.90;;;;;;;3.78;80.90;98982.50;4822844;29;20067;-68
2021/12/08 01:54:19;;;;;;;6.00;2.65;;;;;;;3.89;81.45;98974.19;4822937;29;20482;-68
2021/12/08 01:57:22;;;;;;;;;;;;;;;3.58;82.87;98980.06;4823476;29;20084;-68
2021/12/08 02:00:32;;;;;;;6.80;2.90;;;;;;;3.40;84.00;98980.00;4822939;29;19923;-68
2021/12/08 02:03:37;;;;;;;9.10;2.53;;;;;;;3.58;83.45;98967.13;4821941;29;20097;-68
2021/12/08 02:06:44;;;;;;;5.03;2.53;;;;;;;3.64;83.34;98957.31;4823031;29;20069;-68
2021/12/08 02:09:47;;;;;;;6.25;2.38;;;;;;;3.71;82.50;98957.84;4822726;29;20107;-68
2021/12/08 02:12:51;;;;;;;;;;;;;;;3.44;82.36;98957.44;4823345;29;20050;-68
2021/12/08 02:15:54;;;;;;;5.13;1.90;;;;;;;3.43;80.69;98954.03;4822389;29;19927;-68
2021/12/08 02:18:59;;;;;;;4.47;2.00;;;;;;;3.50;79.49;98939.06;4822731;29;20050;-68
2021/12/08 02:22:02;;;;;;;7.03;2.00;;;;;;;3.53;79.08;98930.31;4822772;29;20578;-68
2021/12/08 02:25:06;;;;;;;;;;;;;;;3.59;78.65;98942.94;4823227;29;20057;-68
2021/12/08 02:28:10;;;;;;;4.55;1.83;;;;;;;3.77;80.28;98942.06;4822852;29;19923;-68
2021/12/08 02:46:44;;;;;;;4.28;1.67;;;;;;;3.67;78.31;98933.06;4822868;29;20630;-68
2021/12/08 02:49:48;;;;;;;3.15;1.15;;;;;;;3.76;78.22;98937.78;4822497;29;20122;-68
2021/12/08 02:52:52;;;;;;;3.38;1.52;;;;;;;3.82;78.35;98937.47;4822019;29;20107;-68
2021/12/08 02:55:55;;;;;;;4.88;1.42;;;;;;;3.81;78.63;98935.81;4804401;29;20054;-68
2021/12/08 02:58:59;;;;;;;4.22;1.50;;;;;;;3.99;78.62;98940.94;4804328;29;20046;-68
2021/12/08 03:02:04;;;;;;;4.10;1.50;;;;;;;4.13;79.11;98936.75;4804328;29;20050;-68
2021/12/08 03:05:07;;;;;;;4.40;1.88;;;;;;;4.03;79.13;98939.91;4804199;29;20119;-68
2021/12/08 03:08:12;;;;;;;4.65;1.33;;;;;;;4.10;78.42;98947.25;4808969;29;20126;-68
2021/12/08 03:11:16;;;;;;;4.70;1.45;;;;;;;3.90;81.04;98952.63;4822425;29;20045;-68
2021/12/08 03:14:20;;;;;;;4.07;1.65;;;;;;;3.92;81.16;98943.88;4822214;29;20477;-68
2021/12/08 03:17:24;;;;;;;4.65;1.60;;;;;;;3.86;81.74;98939.00;4825645;29;20048;-68
2021/12/08 03:20:38;;;;;;;5.68;2.30;;;;;;;4.06;81.04;98942.34;4825407;29;20092;-68
2021/12/08 03:23:55;;;;;;;4.47;1.70;;;;;;;4.06;81.36;98947.50;4825650;29;20114;-68
2021/12/08 03:30:21;;;;;;;3.35;1.60;;;;;;;4.25;81.41;98935.31;4807583;29;20062;-68
2021/12/08 03:33:24;;;;;;;4.55;1.60;;;;;;;4.19;82.04;98939.03;4807285;29;20143;-68
2021/12/08 03:36:27;;;;;;;;;;;;;;;4.20;81.45;98937.28;4807566;29;20057;-69
2021/12/08 03:39:33;;;;;;;4.43;1.48;;;;;;;4.16;81.86;98940.94;4807285;29;19973;-68
2021/12/08 03:42:38;;;;;;;6.40;1.60;;;;;;;3.99;80.14;98943.53;4807409;29;20057;-68
2021/12/08 03:45:47;;;;;;;5.28;1.30;;;;;;;3.90;81.82;98945.69;4807043;29;20100;-68
2021/12/08 03:48:51;;;;;;;5.50;2.30;;;;;;;3.82;81.15;98937.47;4806897;29;20050;-68
2021/12/08 03:52:02;;;;;;;6.43;1.42;;;;;;;3.90;80.25;98939.69;4806838;29;20195;-68
2021/12/08 03:55:08;;;;;;;6.97;1.65;;;;;;;4.15;80.15;98936.69;4824954;29;20860;-68
2021/12/08 03:58:13;;;;;;;6.38;1.80;;;;;;;4.22;80.97;98939.81;4824968;29;20182;-68
2021/12/08 04:01:16;;;;;;;5.00;1.70;;;;;;;4.26;81.86;98929.19;4813553;29;20061;-68
2021/12/08 04:04:25;;;;;;;;;;;;;;;4.32;81.66;98926.31;4825228;29;20107;-68
2021/12/08 04:07:28;;;;;;;4.88;1.25;;;;;;;4.28;80.81;98935.16;4824914;29;20385;-68
2021/12/08 04:10:32;;;;;;;;;;;;;;;4.24;81.10;98928.44;4825060;29;20085;-68
2021/12/08 04:13:50;;;;;;;4.32;1.38;;;;;;;4.15;81.70;98944.47;4824024;29;20410;-69
2021/12/08 04:17:03;;;;;;;5.82;1.42;;;;;;;4.05;82.55;98944.09;4824655;29;20052;-68
2021/12/08 04:20:15;;;;;;;5.47;1.55;;;;;;;3.97;82.77;98946.22;4824472;29;20488;-68
2021/12/08 04:23:22;;;;;;;4.85;1.38;;;;;;;3.95;82.73;98954.03;4813167;29;20535;-68
2021/12/08 04:26:34;;;;;;;5.72;1.15;;;;;;;3.89;83.22;98956.09;4823735;29;20060;-68
2021/12/08 04:29:39;;;;;;;3.97;1.50;;;;;;;3.92;83.38;98956.81;4824352;29;20057;-68
2021/12/08 04:32:43;;;;;;;3.28;1.10;;;;;;;4.03;82.68;98947.66;4824399;29;20130;-68
2021/12/08 04:35:49;;;;;;;4.85;1.52;;;;;;;4.11;82.54;98945.50;4824169;29;20065;-68
2021/12/08 04:38:56;;;;;;;3.85;1.15;;;;;;;3.99;82.69;98948.72;4794956;29;20102;-68
2021/12/08 04:42:06;;;;;;;3.42;1.15;;;;;;;4.03;82.92;98951.09;4806335;29;20107;-68
2021/12/08 04:45:18;;;;;;;5.18;1.20;;;;;;;4.00;83.24;98951.22;4806285;29;20050;-68
2021/12/08 05:09:23;;;;;;;3.28;1.27;;;;;;;3.76;83.46;98949.88;4822892;29;20052;-68
2021/12/08 05:12:32;;;;;;;4.80;1.92;;;;;;;3.73;84.05;98943.09;4802230;29;20058;-68
2021/12/08 05:15:44;;;;;;;4.07;1.13;;;;;;;3.80;83.92;98946.22;4801976;29;20193;-68
2021/12/08 05:18:50;;;;;;;5.60;1.23;;;;;;;3.68;83.51;98955.44;4801109;29;20353;-68
2021/12/08 05:22:04;;;;;;;4.85;1.55;;;;;;;3.59;84.02;98956.69;4803759;29;20056;-69
2021/12/08 05:25:09;;;;;;;;;;;;;;;3.59;84.11;98961.88;4821067;29;20428;-68
2021/12/08 05:28:17;;;;;;;4.15;1.50;;;;;;;3.67;83.55;98974.41;4819721;29;19979;-68
2021/12/08 05:31:25;;;;;;;6.65;1.75;;;;;;;3.79;83.31;98963.47;4818927;29;20054;-68
2021/12/08 05:34:29;;;;;;;8.63;1.80;;;;;;;3.79;83.15;98973.81;4819053;29;20057;-68
2021/12/08 05:37:33;;;;;;;5.03;1.90;;;;;;;3.72;83.59;98962.09;4831563;29;20491;-68
2021/12/08 05:40:41;;;;;;;6.32;1.77;;;;;;;3.68;83.63;98964.00;4800698;29;20101;-68
2021/12/08 05:43:45;;;;;;;3.80;1.65;;;;;;;3.69;84.00;98967.44;4800543;29;20410;-68
2021/12/08 05:46:51;;;;;;;6.40;1.80;;;;;;;3.62;84.48;98960.88;4800787;29;20077;-68
2021/12/08 05:49:56;;;;;;;5.72;2.10;;;;;;;3.65;84.18;98971.09;4800931;29;20085;-68
2021/12/08 05:53:00;;;;;;;8.60;2.17;;;;;;;3.72;83.91;98975.03;4801372;29;20053;-68
2021/12/08 05:56:04;;;;;;;9.80;2.95;;;;;;;3.61;84.40;98972.16;4800815;29;20625;-68
2021/12/08 05:59:10;;;;;;;3.13;1.38;;;;;;;3.70;84.26;98984.59;4800115;29;20688;-68
2021/12/08 06:02:19;;;;;;;5.90;2.30;;;;;;;3.68;84.47;98997.63;4801297;29;20112;-68
2021/12/08 06:05:30;;;;;;;6.88;2.97;;;;;;;3.78;84.27;98992.84;4813845;29;20048;-68
2021/12/08 06:08:34;;;;;;;6.93;3.50;;;;;;;3.91;84.08;98978.38;4836819;29;20049;-68
2021/12/08 06:11:39;;;;;;;7.28;2.92;;;;;;;3.91;83.72;98983.56;4836839;29;20466;-68
2021/12/08 06:14:42;;;;;;;6.68;2.35;;;;;;;3.78;84.85;98982.50;4836772;29;20057;-68
2021/12/08 06:17:56;;;;;;;;;;;;;;;3.78;84.59;98981.66;4827701;29;20379;-67
2021/12/08 06:21:00;;;;;;;4.80;2.22;;;;;;;3.81;84.49;98984.94;4820244;29;19935;-68
2021/12/08 06:24:07;;;;;;;6.38;3.20;;;;;;;3.87;84.55;98984.63;4798805;29;20095;-68
2021/12/08 06:27:11;;;;;;;7.90;2.53;;;;;;;3.82;84.07;98984.00;4800119;29;20119;-68
2021/12/08 06:30:20;;;;;;;9.23;2.70;;;;;;;3.83;84.15;98977.94;4802973;29;20058;-68
2021/12/08 06:33:23;;;;;;;8.77;2.80;;;;;;;3.84;83.94;98971.84;4818683;29;20049;-68
2021/12/08 06:36:35;;;;;;;9.48;3.47;;;;;;;3.83;84.00;98980.53;4818791;29;20057;-68
2021/12/08 06:39:46;;;;;;;22.45;16.08;;;;;;;3.79;84.23;98978.97;4818565;29;20537;-67
2021/12/08 06:42:54;;;;;;;8.75;5.05;;;;;;;3.81;83.58;98977.16;4818382;29;20065;-68
2021/12/08 06:46:00;;;;;;;21.10;9.18;;;;;;;3.58;84.37;98978.31;4818160;29;20482;-68
2021/12/08 06:49:31;;;;;;;20.70;10.02;;;;;;;3.54;84.41;98976.75;4818455;29;20191;-68
2021/12/08 06:52:38;;;;;;;16.67;5.45;;;;;;;3.38;85.08;98971.50;4802099;29;20049;-68
2021/12/08 06:55:48;;;;;;;13.23;3.95;;;;;;;3.45;84.93;98983.22;4801829;29;20110;-68
2021/12/08 06:58:56;;;;;;;9.23;4.65;;;;;;;3.24;85.10;98979.88;4792723;29;20058;-68
2021/12/08 07:02:21;;;;;;;8.98;4.13;;;;;;;3.22;85.10;98978.28;4803966;29;20049;-68
2021/12/08 07:05:52;;;;;;;5.10;2.58;;;;;;;3.20;84.79;98973.22;4785268;30;20070;-69
2021/12/08 07:08:57;;;;;;;10.68;4.47;;;;;;;3.24;84.51;99002.31;4787278;29;20437;-68
2021/12/08 07:12:15;;;;;;;7.13;2.72;;;;;;;3.17;84.80;98980.25;4803723;29;20451;-68
2021/12/08 07:15:22;;;;;;;7.70;3.15;;;;;;;3.26;84.37;98975.50;4803277;29;20050;-68
2021/12/08 07:18:40;;;;;;;7.90;3.00;;;;;;;3.10;84.47;98995.22;4803959;29;20154;-68
2021/12/08 07:21:45;;;;;;;6.20;3.15;;;;;;;3.12;84.68;98997.72;4802870;29;20085;-68
2021/12/08 07:24:51;;;;;;;7.90;3.35;;;;;;;3.15;84.76;98997.56;4816050;29;20103;-68
2021/12/08 07:27:55;;;;;;;6.70;2.88;;;;;;;3.17;84.19;99000.94;4821593;29;20598;-68
2021/12/08 07:31:08;;;;;;;11.43;4.63;;;;;;;3.19;83.99;99005.13;4821645;29;20470;-68
2021/12/08 07:34:18;;;;;;;11.30;3.03;;;;;;;3.16;84.22;99020.75;4787175;29;20054;-68
2021/12/08 07:37:27;;;;;;;7.97;3.80;;;;;;;3.17;83.82;99006.91;4803296;29;20115;-69
2021/12/08 07:40:41;;;;;;;8.60;2.90;;;;;;;3.21;83.88;99002.44;4802710;29;20424;-68
2021/12/08 07:43:50;;;;;;;10.48;3.33;;;;;;;2.98;84.22;99004.34;4803192;29;20712;-68
2021/12/08 07:46:59;;;;;;;11.40;4.07;;;;;;;2.95;84.69;98991.56;4803127;29;20089;-68
2021/12/08 07:50:11;;;;;;;8.00;3.17;;;;;;;2.99;84.95;98998.25;4806683;29;20118;-68
2021/12/08 07:53:17;;;;;;;6.80;3.20;;;;;;;3.06;84.52;98990.25;4820486;29;20299;-68
2021/12/08 07:56:25;;;;;;;17.23;10.30;;;;;;;3.04;84.33;98990.31;4820944;29;20065;-68
2021/12/08 07:59:28;;;;;;;13.02;7.60;;;;;;;3.07;84.21;99008.25;4820874;29;20118;-68
2021/12/08 08:02:32;;;;;;;22.80;17.15;;;;;;;2.95;85.10;99011.41;4802162;29;20534;-68
2021/12/08 08:05:36;;;;;;;;;;;;;;;3.01;84.59;99011.94;4802586;29;20414;-69
2021/12/08 08:08:39;;;;;;;13.10;5.82;;;;;;;2.97;85.01;99010.44;4801888;29;19924;-68
2021/12/08 08:11:47;;;;;;;21.50;15.30;;;;;;;2.90;85.28;98998.69;4803038;29;20145;-68
2021/12/08 08:14:55;;;;;;;18.98;11.80;;;;;;;3.06;85.00;98992.81;4806028;29;20057;-68
2021/12/08 08:18:05;;;;;;;13.82;8.45;;;;;;;2.91;85.03;98990.03;4806651;29;20054;-68
2021/12/08 08:21:14;;;;;;;9.68;6.28;;;;;;;2.99;85.14;98995.69;4806589;29;20050;-68
2021/12/08 08:24:19;;;;;;;23.80;15.15;;;;;;;3.15;84.75;99005.31;4806582;29;20049;-68
2021/12/08 08:27:24;;;;;;;12.32;6.28;;;;;;;2.91;85.38;99010.69;4806265;29;20532;-68
2021/12/08 08:30:33;;;;;;;13.63;6.95;;;;;;;2.94;85.60;99013.16;4821540;29;20045;-68
2021/12/08 08:33:39;;;;;;;19.30;11.85;;;;;;;3.15;84.92;99013.91;4824374;29;20138;-68
2021/12/08 08:36:45;;;;;;;24.42;14.32;;;;;;;3.27;84.69;99028.00;4824364;29;20053;-68
2021/12/08 08:39:53;;;;;;;19.02;12.95;;;;;;;3.11;85.00;99035.63;4824297;29;20122;-68
2021/12/08 08:42:58;;;;;;;14.15;8.98;;;;;;;3.25;84.86;99024.63;4824270;29;20045;-68
2021/12/08 08:46:12;;;;;;;10.48;7.38;;;;;;;3.33;84.81;99032.06;4824236;29;20098;-68
2021/12/08 08:49:17;;;;;;;;;;;;;;;3.46;84.42;99052.06;4824644;29;20125;-68
2021/12/08 08:52:45;;;;;;;7.32;4.07;;;;;;;3.43;84.35;99069.47;4824232;29;20399;-68
2021/12/08 08:55:53;;;;;;;11.70;3.83;;;;;;;3.50;84.04;99076.84;4823860;29;20057;-68
2021/12/08 08:59:02;;;;;;;10.73;3.25;;;;;;;3.35;84.79;99074.13;4819128;29;20148;-69
2021/12/08 09:02:09;;;;;;;8.82;3.55;;;;;;;3.40;84.80;99074.78;4819090;29;20045;-69
2021/12/08 09:05:23;;;;;;;21.73;12.10;;;;;;;3.40;84.54;99080.78;4819528;29;20103;-68
2021/12/08 09:08:30;;;;;;;;;;;;;;;3.48;84.75;99086.44;4837999;29;20109;-68
2021/12/08 09:11:37;;;;;;;15.60;7.85;;;;;;;3.58;84.89;99092.03;4837461;29;20006;-68
2021/12/08 09:14:57;;;;;;;13.57;5.35;;;;;;;3.59;85.11;99095.44;4837182;29;20056;-68
2021/12/08 09:18:24;;;;;;;6.97;3.60;;;;;;;3.56;85.48;99099.00;4837920;29;20109;-68
2021/12/08 09:21:34;;;;;;;9.40;4.10;;;;;;;3.46;85.85;99101.16;4836562;29;20060;-68
2021/12/08 09:24:56;;;;;;;8.80;4.20;;;;;;;3.59;85.63;99096.25;4836510;29;20084;-68
2021/12/08 09:28:08;;;;;;;8.32;4.32;;;;;;;3.64;85.25;99096.06;4818621;29;20193;-68
2021/12/08 09:31:22;;;;;;;9.73;3.87;;;;;;;3.53;85.75;99082.78;4819695;29;20050;-68
2021/12/08 09:34:31;;;;;;;9.57;4.10;;;;;;;3.60;85.39;99084.19;4818093;29;20424;-68
2021/12/08 09:37:43;;;;;;;13.20;8.20;;;;;;;3.70;84.80;99090.59;4818388;29;20107;-68
2021/12/08 09:40:57;;;;;;;19.33;10.57;;;;;;;3.68;85.12;99092.44;4816139;29;20527;-68
2021/12/08 09:44:07;;;;;;;21.73;12.15;;;;;;;3.63;85.61;99113.31;4818631;29;20112;-68
2021/12/08 09:47:11;;;;;;;14.43;8.07;;;;;;;3.29;87.10;99105.41;4818292;29;20058;-69
2021/12/08 09:50:15;;;;;;;10.55;6.10;;;;;;;3.59;86.00;99116.13;4834127;29;20118;-68
2021/12/08 09:53:19;;;;;;;13.43;7.75;;;;;;;3.46;86.38;99101.16;4836825;29;20053;-68
2021/12/08 09:56:24;;;;;;;14.43;8.18;;;;;;;3.68;85.73;99105.34;4819498;29;20175;-68
2021/12/08 09:59:27;;;;;;;9.32;5.45;;;;;;;3.86;85.56;99099.31;4819425;29;20114;-68
2021/12/08 10:02:33;;;;;;;11.77;5.43;;;;;;;3.95;85.49;99104.03;4818554;29;20114;-68
2021/12/08 10:05:40;;;;;;;14.95;5.75;;;;;;;3.97;85.01;99114.31;4836764;29;20084;-68
2021/12/08 10:08:45;;;;;;;16.20;7.20;;;;;;;4.07;85.29;99107.78;4836273;29;20082;-68
2021/12/08 10:11:48;;;;;;;14.77;8.27;;;;;;;4.03;85.20;99115.78;4836652;29;20068;-68
2021/12/08 10:14:52;;;;;;;;;;;;;;;3.92;85.57;99114.53;4836884;29;20413;-69
2021/12/08 10:17:57;;;;;;;15.90;7.07;;;;;;;3.95;85.76;99104.03;4840831;29;19958;-68
2021/12/08 10:21:00;;;;;;;10.98;6.97;;;;;;;3.97;85.40;99109.97;4840186;29;20527;-68
2021/12/08 10:24:15;;;;;;;14.48;7.10;;;;;;;4.04;85.48;99101.91;4825385;29;20057;-68
2021/12/08 10:27:18;;;;;;;8.88;4.93;;;;;;;4.01;84.82;99092.56;4826669;29;20472;-68
2021/12/08 10:30:23;;;;;;;9.52;5.07;;;;;;;4.03;85.04;99097.66;4826789;29;20084;-68
2021/12/08 10:34:03;;;;;;;8.50;5.07;;;;;;;4.08;85.01;99088.75;4826639;29;20085;-68
2021/12/08 10:37:17;;;;;;;9.75;4.70;;;;;;;4.01;85.53;99073.63;4826506;29;20110;-68
2021/12/08 10:40:21;;;;;;;9.88;4.32;;;;;;;3.97;85.48;99072.94;4826487;29;20582;-68
2021/12/08 10:43:24;;;;;;;;;;;;;;;4.05;85.17;99081.16;4826596;29;20049;-68
2021/12/08 10:46:37;;;;;;;10.07;4.45;;;;;;;4.05;85.11;99072.56;4826444;29;19924;-68
2021/12/08 10:56:19;;;;;;;8.95;3.85;;;;;;;4.17;85.47;99062.44;4825811;29;20054;-68
2021/12/08 10:59:28;;;;;;;8.77;4.13;;;;;;;4.24;85.06;99073.31;4825830;29;20250;-68
2021/12/08 11:02:42;;;;;;;9.07;4.28;;;;;;;4.10;85.71;99075.75;4825136;29;20523;-69
2021/12/08 11:05:57;;;;;;;10.63;4.22;;;;;;;4.10;85.02;99070.59;4811735;29;20513;-68
2021/12/08 11:09:06;;;;;;;9.07;4.65;;;;;;;4.18;85.00;99074.47;4822160;29;20200;-68
2021/12/08 11:12:09;;;;;;;12.48;6.63;;;;;;;4.05;85.25;99082.91;4818005;29;20053;-69
2021/12/08 11:15:20;;;;;;;;;;;;;;;4.26;84.66;99097.38;4816558;29;20106;-68
2021/12/08 11:18:26;;;;;;;14.70;9.70;;;;;;;4.04;86.24;99086.41;4820444;29;19973;-69
2021/12/08 11:21:37;;;;;;;16.90;11.10;;;;;;;4.21;86.32;99076.06;4820502;29;20115;-68
2021/12/08 11:24:55;;;;;;;14.80;9.52;;;;;;;4.38;85.43;99076.06;4802163;29;20478;-68
2021/12/08 11:28:22;;;;;;;12.60;7.93;;;;;;;4.55;85.11;99082.16;4821265;29;20146;-68
2021/12/08 11:31:33;;;;;;;11.35;7.18;;;;;;;4.60;84.92;99080.19;4819767;29;20080;-68
2021/12/08 11:34:47;;;;;;;15.27;7.57;;;;;;;4.68;84.33;99085.78;4820533;29;20056;-68
2021/12/08 11:37:59;;;;;;;10.02;6.18;;;;;;;4.69;84.66;99078.84;4826308;29;20465;-68
2021/12/08 11:41:09;;;;;;;10.55;5.88;;;;;;;4.71;84.95;99077.03;4837151;29;20106;-68
2021/12/08 11:44:16;;;;;;;14.75;7.85;;;;;;;4.72;85.15;99073.50;4802930;29;20066;-68
2021/12/08 11:47:24;;;;;;;10.05;5.55;;;;;;;4.59;85.60;99068.13;4802521;29;20073;-68
2021/12/08 11:50:28;;;;;;;11.10;5.45;;;;;;;4.77;85.32;99071.53;4808391;29;20060;-68
2021/12/08 11:53:31;;;;;;;;;;;;;;;4.74;84.60;99071.69;4835334;29;20080;-69
2021/12/08 11:56:39;;;;;;;13.50;6.80;;;;;;;4.84;84.14;99078.06;4818500;29;20398;-68
2021/12/08 11:59:59;;;;;;;11.68;5.95;;;;;;;4.93;83.73;99084.53;4819903;29;20239;-68
2021/12/08 12:03:09;;;;;;;13.50;8.82;;;;;;;4.92;83.54;99083.69;4820090;29;20099;-68
2021/12/08 12:06:12;;;;;;;11.88;9.35;;;;;;;5.01;83.93;99074.59;4824430;29;21231;-68
2021/12/08 12:09:18;;;;;;;32.50;25.38;;;;;;;5.07;83.35;99076.84;4838434;29;20106;-69
2021/12/08 12:12:22;;;;;;;14.20;11.32;;;;;;;5.04;84.39;99077.88;4826803;29;20052;-71
2021/12/08 12:15:25;;;;;;;15.52;9.90;;;;;;;4.93;85.13;99081.94;4822953;29;20103;-68
2021/12/08 12:18:33;;;;;;;17.02;10.02;;;;;;;4.80;85.53;99084.31;4820016;29;20041;-68
2021/12/08 12:21:45;;;;;;;26.08;19.48;;;;;;;4.94;85.36;99079.25;4819956;29;20106;-69
2021/12/08 12:25:04;;;;;;;26.50;16.87;;;;;;;5.06;84.79;99080.38;4820813;29;20049;-68
2021/12/08 12:28:35;;;;;;;20.88;13.57;;;;;;;5.00;85.10;99084.13;4819997;29;20060;-70
2021/12/08 12:32:01;;;;;;;50.40;32.88;;;;;;;4.90;85.94;99075.16;4820204;29;20045;-68
2021/12/08 12:35:10;;;;;;;31.23;22.17;;;;;;;5.08;86.22;99073.38;4827258;29;20052;-68
2021/12/08 12:38:13;;;;;;;23.23;14.40;;;;;;;5.10;86.15;99067.16;4828172;29;20520;-68
2021/12/08 12:41:28;;;;;;;;;;;;;;;5.23;85.33;99063.91;4823767;29;20114;-68
2021/12/08 12:44:32;;;;;;;15.52;9.52;;;;;;;5.31;84.92;99056.59;4824037;29;19924;-68
2021/12/08 12:47:36;;;;;;;20.73;10.38;;;;;;;5.24;85.72;99045.72;4822805;29;20057;-68
2021/12/08 12:50:54;;;;;;;21.98;14.23;;;;;;;5.22;85.90;99042.34;4823418;29;20062;-68
2021/12/08 12:53:58;;;;;;;16.20;10.15;;;;;;;5.29;85.94;99043.69;4824165;29;20057;-68
2021/12/08 12:57:06;;;;;;;15.32;8.50;;;;;;;5.27;86.08;99050.75;4829015;29;20465;-68
2021/12/08 13:00:24;;;;;;;10.80;7.05;;;;;;;5.39;85.95;99048.38;4837775;29;20112;-68
2021/12/08 13:03:52;;;;;;;10.55;4.65;;;;;;;5.31;82.21;99047.06;4806222;29;20578;-68
2021/12/08 13:07:03;;;;;;;11.57;2.72;;;;;;;5.39;81.28;99043.19;4789951;29;20081;-68
2021/12/08 13:10:10;;;;;;;8.57;3.10;;;;;;;5.57;82.48;99048.22;4803629;29;20081;-68
2021/12/08 13:13:17;;;;;;;11.77;4.25;;;;;;;5.66;83.41;99048.63;4819023;29;20594;-69
2021/12/08 13:16:35;;;;;;;8.77;4.13;;;;;;;5.59;83.06;99051.56;4818795;29;20595;-67
2021/12/08 13:19:59;;;;;;;11.80;4.30;;;;;;;5.68;83.67;99049.38;4819953;29;20364;-68
2021/12/08 13:23:11;;;;;;;10.23;4.57;;;;;;;5.77;84.04;99046.25;4818781;29;20417;-68
2021/12/08 13:26:19;;;;;;;9.85;3.75;;;;;;;5.55;80.45;99044.03;4834852;29;20068;-68
2021/12/08 13:29:24;;;;;;;12.80;5.85;;;;;;;5.60;81.24;99047.22;4837146;29;20419;-68
2021/12/08 13:32:45;;;;;;;10.02;4.43;;;;;;;5.72;82.60;99038.75;4830208;29;20050;-68
2021/12/08 13:35:48;;;;;;;15.23;3.88;;;;;;;5.74;81.72;99036.06;4823444;29;20570;-68
2021/12/08 13:38:58;;;;;;;10.85;4.13;;;;;;;5.80;80.74;99041.72;4823452;29;20133;-68
2021/12/08 13:42:08;;;;;;;13.70;3.88;;;;;;;5.74;81.22;99036.91;4823075;29;20061;-68
2021/12/08 13:45:13;;;;;;;8.30;2.72;;;;;;;5.80;82.87;99046.91;4823254;29;20405;-68
2021/12/08 13:48:17;;;;;;;11.85;3.80;;;;;;;5.77;83.11;99044.50;4823283;29;20528;-68
2021/12/08 13:51:22;;;;;;;11.93;3.72;;;;;;;5.81;82.93;99040.00;4823023;29;20078;-68
2021/12/08 13:54:34;;;;;;;10.45;3.97;;;;;;;5.84;82.89;99039.84;4823266;29;20053;-68
2021/12/08 13:57:44;;;;;;;7.00;3.15;;;;;;;5.79;83.27;99053.03;4823084;29;20057;-68
2021/12/08 14:00:54;;;;;;;7.70;2.63;;;;;;;5.74;84.20;99047.28;4801145;29;20109;-68
2021/12/08 14:03:57;;;;;;;17.70;9.35;;;;;;;5.69;83.87;99045.88;4823022;29;20088;-68
2021/12/08 14:07:00;;;;;;;25.08;17.77;;;;;;;5.61;84.59;99038.50;4811944;29;20057;-68
2021/12/08 14:10:20;;;;;;;27.48;16.25;;;;;;;5.71;84.31;99047.47;4822781;29;20593;-68
2021/12/08 14:13:28;;;;;;;14.98;8.05;;;;;;;5.69;84.43;99046.69;4804609;29;20055;-68
2021/12/08 14:16:31;;;;;;;13.15;6.80;;;;;;;5.70;84.75;99050.97;4804765;29;20054;-68
2021/12/08 14:19:39;;;;;;;15.15;6.28;;;;;;;5.70;84.25;99038.00;4804714;29;20045;-68
2021/12/08 14:22:43;;;;;;;10.35;4.93;;;;;;;5.64;85.25;99042.69;4804767;29;20103;-68
2021/12/08 14:25:49;;;;;;;;;;;;;;;5.62;85.13;99047.13;4809638;29;20053;-68
2021/12/08 14:28:55;;;;;;;13.73;3.95;;;;;;;5.57;84.99;99043.03;4822598;29;19923;-68
2021/12/08 14:31:59;;;;;;;10.02;4.35;;;;;;;5.53;85.03;99046.72;4822824;29;20130;-68
2021/12/08 14:35:10;;;;;;;7.53;2.60;;;;;;;5.35;85.76;99048.56;4822694;29;20150;-68
2021/12/08 14:38:13;;;;;;;8.45;2.78;;;;;;;5.34;86.03;99051.25;4823001;29;20053;-68
2021/12/08 14:41:24;;;;;;;8.48;2.90;;;;;;;5.34;85.89;99053.84;4822728;29;20061;-68
2021/12/08 14:44:31;;;;;;;7.32;2.40;;;;;;;5.36;86.00;99050.25;4822462;29;20045;-68
2021/12/08 14:47:37;;;;;;;7.15;2.80;;;;;;;5.16;86.17;99054.81;4818032;29;20057;-66
2021/12/08 14:50:41;;;;;;;9.32;2.55;;;;;;;5.09;86.58;99056.91;4822342;29;20057;-67
2021/12/08 14:53:44;;;;;;;;;;;;;;;5.11;86.38;99057.66;4822984;29;20126;-66
2021/12/08 14:57:09;;;;;;;12.10;2.53;;;;;;;5.13;85.56;99061.00;4822498;29;20012;-66
2021/12/08 15:00:23;;;;;;;8.70;2.30;;;;;;;4.99;85.52;99066.91;4822649;29;20126;-66
2021/12/08 15:03:26;;;;;;;9.90;3.17;;;;;;;5.04;85.66;99064.94;4822163;29;20053;-66
2021/12/08 15:06:30;;;;;;;6.68;1.98;;;;;;;5.04;85.09;99058.88;4822477;29;20085;-66
2021/12/08 15:09:35;;;;;;;8.25;2.05;;;;;;;4.87;85.57;99073.56;4822663;29;20098;-66
2021/12/08 15:12:42;;;;;;;12.30;4.15;;;;;;;4.84;85.28;99073.72;4825065;29;20049;-66
2021/12/08 15:15:49;;;;;;;17.25;5.47;;;;;;;4.53;86.66;99078.78;4825660;29;20188;-66
2021/12/08 15:19:05;;;;;;;21.30;10.80;;;;;;;4.62;85.89;99073.16;4824816;29;20108;-66
2021/12/08 15:22:10;;;;;;;18.70;6.10;;;;;;;4.58;85.58;99080.25;4824953;29;20122;-66
2021/12/08 15:25:22;;;;;;;13.10;4.93;;;;;;;4.60;85.34;99088.78;4825669;29;20130;-69
2021/12/08 15:28:32;;;;;;;16.73;4.80;;;;;;;4.58;84.71;99084.59;4825382;29;20122;-69
2021/12/08 15:31:57;;;;;;;12.70;4.70;;;;;;;4.57;84.88;99101.88;4825709;29;20142;-69
2021/12/08 15:35:18;;;;;;;13.80;4.05;;;;;;;4.59;84.60;99099.19;4825386;29;20058;-67
2021/12/08 15:38:21;;;;;;;11.52;3.17;;;;;;;4.46;84.72;99093.78;4825264;29;20110;-68
2021/12/08 15:41:30;;;;;;;11.90;4.65;;;;;;;4.48;84.84;99097.16;4825078;29;20596;-68
2021/12/08 15:44:36;;;;;;;9.40;3.05;;;;;;;4.34;85.12;99097.84;4824826;29;20491;-68
2021/12/08 15:47:43;;;;;;;12.38;4.53;;;;;;;4.42;84.73;99113.81;4824169;29;20109;-68
2021/12/08 15:51:02;;;;;;;9.10;4.43;;;;;;;4.32;84.56;99114.34;4824952;29;20370;-68
2021/12/08 15:54:06;;;;;;;6.38;2.70;;;;;;;4.30;84.95;99127.34;4822930;29;21161;-69